createdAt,value
2022-11-29T00:01:00.436Z,223.10
2022-11-29T00:03:28.267Z,186.07
2022-11-29T00:05:55.670Z,327.45
2022-11-29T00:08:23.994Z,237.40
2022-11-29T00:10:51.976Z,183.32
2022-11-29T00:13:19.241Z,215.23
2022-11-29T00:15:46.706Z,242.82
2022-11-29T00:18:15.679Z,349.40
2022-11-29T00:20:42.978Z,139.00
2022-11-29T00:23:12.944Z,313.13
2022-11-29T00:25:40.409Z,266.27
2022-11-29T00:28:10.771Z,296.65
2022-11-29T00:30:38.241Z,430.70
2022-11-29T00:33:05.854Z,301.30
2022-11-29T00:35:33.635Z,320.67
2022-11-29T00:38:02.084Z,257.48
2022-11-29T00:40:29.351Z,320.58
2022-11-29T00:42:57.102Z,286.02
2022-11-29T00:45:24.494Z,365.83
2022-11-29T00:47:51.919Z,407.25
2022-11-29T00:50:19.899Z,364.98
2022-11-29T00:52:47.161Z,243.52
2022-11-29T00:55:16.763Z,272.75
2022-11-29T00:57:44.663Z,155.25
2022-11-29T01:00:12.614Z,158.70
2022-11-29T01:02:40.301Z,201.95
2022-11-29T01:05:08.212Z,453.40
2022-11-29T01:07:35.824Z,346.55
2022-11-29T01:10:03.201Z,265.65
2022-11-29T01:12:30.876Z,304.48
2022-11-29T01:14:59.709Z,351.58
2022-11-29T01:17:27.155Z,290.33
2022-11-29T01:19:54.803Z,317.33
2022-11-29T01:22:22.221Z,327.17
2022-11-29T01:24:50.258Z,290.13
2022-11-29T01:27:18.017Z,294.48
2022-11-29T01:29:45.530Z,240.98
2022-11-29T01:32:13.125Z,212.38
2022-11-29T01:34:41.176Z,234.20
2022-11-29T01:37:11.335Z,286.98
2022-11-29T01:39:41.134Z,183.30
2022-11-29T01:42:10.581Z,208.00
2022-11-29T01:44:38.097Z,202.23
2022-11-29T01:47:05.888Z,167.98
2022-11-29T01:49:35.916Z,207.48
2022-11-29T01:52:10.061Z,296.67
2022-11-29T01:54:42.654Z,266.17
2022-11-29T01:57:10.758Z,227.43
2022-11-29T01:59:39.866Z,190.90
2022-11-29T02:02:09.867Z,224.93
2022-11-29T02:04:41.726Z,257.48
2022-11-29T02:07:11.799Z,140.07
2022-11-29T02:09:41.916Z,180.48
2022-11-29T02:12:35.870Z,229.25
2022-11-29T02:15:05.798Z,140.60
2022-11-29T02:17:36.289Z,150.77
2022-11-29T02:20:23.135Z,234.13
2022-11-29T02:23:12.338Z,170.10
2022-11-29T02:25:58.282Z,275.25
2022-11-29T02:28:28.816Z,224.60
2022-11-29T02:31:00.885Z,263.00
2022-11-29T02:33:39.979Z,100.70
2022-11-29T02:36:19.737Z,112.53
2022-11-29T02:39:18.033Z,135.43
2022-11-29T02:41:51.105Z,175.02
2022-11-29T02:44:29.508Z,177.38
2022-11-29T02:47:25.918Z,170.10
2022-11-29T02:50:12.259Z,111.32
2022-11-29T02:52:53.925Z,102.93
2022-11-29T02:55:40.335Z,188.90
2022-11-29T02:58:18.138Z,180.48
2022-11-29T03:01:00.844Z,244.02
2022-11-29T03:03:41.722Z,252.77
2022-11-29T03:06:32.234Z,213.73
2022-11-29T03:09:03.124Z,97.80
2022-11-29T03:11:30.225Z,294.63
2022-11-29T03:14:16.159Z,165.32
2022-11-29T03:16:51.247Z,202.23
2022-11-29T03:19:18.796Z,250.20
2022-11-29T03:21:55.354Z,217.88
2022-11-29T03:24:31.733Z,175.05
2022-11-29T03:27:10.336Z,186.98
2022-11-29T03:29:41.475Z,166.00
2022-11-29T03:32:21.184Z,146.82
2022-11-29T03:35:05.399Z,143.95
2022-11-29T03:37:43.387Z,252.65
2022-11-29T03:40:13.930Z,186.57
2022-11-29T03:42:50.985Z,237.90
2022-11-29T03:45:36.239Z,234.80
2022-11-29T03:48:32.826Z,189.20
2022-11-29T03:51:17.064Z,155.18
2022-11-29T03:53:53.738Z,189.15
2022-11-29T03:56:27.956Z,169.00
2022-11-29T03:59:10.652Z,147.45
2022-11-29T04:01:40.897Z,274.08
2022-11-29T04:04:23.505Z,217.88
2022-11-29T04:06:57.191Z,308.08
2022-11-29T04:12:10.270Z,225.43
2022-11-29T04:14:52.709Z,197.98
2022-11-29T04:17:23.200Z,259.25
2022-11-29T04:20:12.883Z,251.18
2022-11-29T04:22:54.177Z,355.77
2022-11-29T04:25:43.110Z,398.70
2022-11-29T04:28:29.342Z,315.00
2022-11-29T04:31:02.720Z,388.30
2022-11-29T04:33:48.204Z,345.42
2022-11-29T04:36:34.249Z,409.23
2022-11-29T04:39:04.111Z,308.60
2022-11-29T04:41:46.816Z,361.58
2022-11-29T04:44:23.479Z,367.20
2022-11-29T04:47:16.754Z,303.23
2022-11-29T04:50:07.070Z,443.97
2022-11-29T04:52:50.763Z,273.40
2022-11-29T04:58:00.225Z,368.05
2022-11-29T05:00:27.415Z,332.45
2022-11-29T05:02:58.046Z,361.05
2022-11-29T05:05:34.247Z,262.00
2022-11-29T05:08:20.472Z,272.15
2022-11-29T05:11:07.402Z,287.98
2022-11-29T05:13:39.230Z,437.05
2022-11-29T05:16:10.230Z,372.45
2022-11-29T05:18:50.062Z,293.83
2022-11-29T05:21:25.799Z,322.90
2022-11-29T05:24:05.307Z,384.35
2022-11-29T05:26:42.743Z,455.90
2022-11-29T05:29:20.019Z,487.73
2022-11-29T05:32:06.506Z,296.20
2022-11-29T05:34:52.795Z,436.02
2022-11-29T05:37:28.913Z,336.08
2022-11-29T05:40:05.434Z,208.80
2022-11-29T05:42:42.578Z,307.75
2022-11-29T05:45:24.956Z,260.88
2022-11-29T05:47:54.895Z,292.13
2022-11-29T05:50:24.151Z,319.85
2022-11-29T05:53:02.717Z,272.02
2022-11-29T05:55:41.311Z,455.35
2022-11-29T05:58:30.287Z,333.88
2022-11-29T06:01:18.915Z,511.73
2022-11-29T06:04:11.675Z,232.10
2022-11-29T06:06:47.911Z,385.45
2022-11-29T06:09:23.094Z,284.10
2022-11-29T06:11:54.467Z,234.80
2022-11-29T06:14:40.590Z,254.63
2022-11-29T06:17:10.811Z,230.18
2022-11-29T06:20:10.218Z,269.27
2022-11-29T06:22:47.622Z,231.80
2022-11-29T06:25:22.780Z,242.23
2022-11-29T06:28:10.081Z,405.27
2022-11-29T06:31:04.336Z,329.58
2022-11-29T06:33:39.788Z,348.48
2022-11-29T06:36:33.262Z,289.55
2022-11-29T06:39:00.817Z,397.85
2022-11-29T06:41:31.193Z,391.50
2022-11-29T06:44:00.991Z,363.35
2022-11-29T06:46:47.695Z,335.05
2022-11-29T06:49:26.957Z,380.23
2022-11-29T06:52:13.058Z,311.27
2022-11-29T06:54:48.174Z,310.55
2022-11-29T06:57:22.290Z,303.60
2022-11-29T07:00:03.142Z,216.55
2022-11-29T07:02:36.737Z,218.02
2022-11-29T07:05:23.232Z,328.55
2022-11-29T07:07:51.210Z,218.88
2022-11-29T07:10:19.898Z,241.05
2022-11-29T07:12:49.198Z,197.60
2022-11-29T07:15:17.903Z,392.10
2022-11-29T07:18:04.377Z,270.08
2022-11-29T07:20:39.702Z,316.65
2022-11-29T07:23:10.203Z,265.60
2022-11-29T07:25:40.576Z,252.98
2022-11-29T07:28:17.565Z,267.30
2022-11-29T07:31:02.792Z,296.20
2022-11-29T07:33:42.996Z,239.55
2022-11-29T07:36:19.249Z,276.25
2022-11-29T07:39:07.019Z,265.02
2022-11-29T07:41:43.812Z,190.90
2022-11-29T07:44:19.993Z,187.93
2022-11-29T07:46:48.900Z,178.55
2022-11-29T07:49:16.321Z,157.45
2022-11-29T07:51:44.090Z,155.52
2022-11-29T07:54:15.357Z,195.82
2022-11-29T07:56:42.731Z,173.95
2022-11-29T07:59:19.541Z,138.23
2022-11-29T08:01:47.141Z,104.50
2022-11-29T08:04:21.633Z,168.45
2022-11-29T08:06:58.841Z,102.97
2022-11-29T08:09:25.963Z,56.17
2022-11-29T08:11:53.177Z,87.03
2022-11-29T08:14:20.268Z,59.38
2022-11-29T08:16:48.121Z,85.20
2022-11-29T08:19:18.658Z,128.80
2022-11-29T08:21:49.526Z,142.02
2022-11-29T08:24:17.145Z,92.93
2022-11-29T08:26:47.590Z,172.70
2022-11-29T08:29:18.616Z,174.15
2022-11-29T08:31:47.882Z,180.25
2022-11-29T08:34:16.203Z,79.72
2022-11-29T08:36:48.089Z,91.22
2022-11-29T08:39:24.614Z,159.98
2022-11-29T08:41:53.314Z,146.20
2022-11-29T08:44:21.090Z,99.30
2022-11-29T08:47:07.572Z,135.35
2022-11-29T08:49:35.120Z,125.20
2022-11-29T08:52:21.636Z,62.65
2022-11-29T08:54:48.906Z,59.55
2022-11-29T08:57:51.479Z,60.28
2022-11-29T09:00:10.479Z,73.30
2022-11-29T09:02:42.878Z,92.05
2022-11-29T09:05:27.247Z,98.10
2022-11-29T09:08:02.564Z,64.72
2022-11-29T09:10:31.488Z,54.53
2022-11-29T09:13:20.477Z,49.97
2022-11-29T09:15:57.963Z,76.22
2022-11-29T09:18:31.945Z,50.83
2022-11-29T09:21:05.646Z,64.43
2022-11-29T09:23:55.939Z,55.28
2022-11-29T09:26:49.920Z,60.03
2022-11-29T09:31:51.453Z,75.22
2022-11-29T09:34:57.986Z,78.35
2022-11-29T09:37:27.485Z,71.43
2022-11-29T09:39:56.386Z,60.70
2022-11-29T09:42:51.954Z,80.97
2022-11-29T09:45:31.497Z,67.18
2022-11-29T09:48:22.691Z,60.70
2022-11-29T09:50:59.179Z,62.85
2022-11-29T09:53:44.327Z,79.60
2022-11-29T09:57:24.294Z,61.50
2022-11-29T09:59:54.622Z,50.67
2022-11-29T10:02:26.769Z,51.97
2022-11-29T10:05:00.092Z,50.25
2022-11-29T10:07:31.314Z,69.05
2022-11-29T10:10:09.723Z,30.15
2022-11-29T10:12:44.440Z,26.77
2022-11-29T10:15:14.843Z,51.25
2022-11-29T10:18:13.823Z,53.10
2022-11-29T10:20:49.017Z,41.40
2022-11-29T10:23:25.075Z,33.90
2022-11-29T10:25:54.907Z,43.00
2022-11-29T10:28:26.112Z,49.30
2022-11-29T10:31:02.748Z,64.20
2022-11-29T10:33:34.892Z,53.53
2022-11-29T10:36:10.979Z,59.50
2022-11-29T10:38:39.818Z,59.80
2022-11-29T10:41:17.157Z,59.05
2022-11-29T10:43:47.123Z,41.35
2022-11-29T10:46:22.899Z,38.10
2022-11-29T10:48:50.553Z,60.20
2022-11-29T10:51:18.590Z,44.28
2022-11-29T10:53:46.817Z,53.78
2022-11-29T10:56:17.086Z,45.33
2022-11-29T10:59:05.512Z,38.08
2022-11-29T11:01:44.038Z,39.08
2022-11-29T11:04:30.537Z,37.65
2022-11-29T11:07:07.616Z,28.48
2022-11-29T11:09:36.854Z,36.03
2022-11-29T11:12:23.021Z,26.73
2022-11-29T11:14:54.609Z,38.40
2022-11-29T11:17:32.592Z,29.92
2022-11-29T11:20:01.138Z,32.38
2022-11-29T11:22:32.976Z,38.90
2022-11-29T11:25:03.821Z,43.35
2022-11-29T11:27:36.547Z,41.75
2022-11-29T11:30:06.066Z,40.45
2022-11-29T11:32:39.712Z,34.65
2022-11-29T11:35:22.343Z,27.83
2022-11-29T11:37:59.237Z,38.33
2022-11-29T11:40:41.340Z,31.98
2022-11-29T11:43:16.711Z,30.15
2022-11-29T11:45:51.628Z,37.15
2022-11-29T11:48:19.784Z,35.83
2022-11-29T11:50:47.151Z,29.95
2022-11-29T11:53:23.184Z,44.75
2022-11-29T11:56:11.351Z,30.38
2022-11-29T11:58:40.815Z,34.08
2022-11-29T12:01:13.733Z,40.22
2022-11-29T12:04:00.287Z,39.40
2022-11-29T12:06:35.788Z,43.28
2022-11-29T12:09:06.535Z,38.42
2022-11-29T12:11:41.568Z,35.13
2022-11-29T12:14:23.083Z,41.05
2022-11-29T12:16:51.513Z,36.83
2022-11-29T12:19:22.161Z,37.38
2022-11-29T12:21:52.816Z,37.83
2022-11-29T12:24:20.028Z,42.55
2022-11-29T12:26:56.943Z,48.28
2022-11-29T12:29:32.983Z,40.22
2022-11-29T12:32:24.837Z,35.58
2022-11-29T12:34:55.772Z,40.70
2022-11-29T12:37:25.993Z,35.10
2022-11-29T12:39:59.843Z,35.45
2022-11-29T12:42:48.902Z,41.78
2022-11-29T12:45:24.813Z,31.35
2022-11-29T12:48:17.660Z,38.08
2022-11-29T12:50:48.004Z,30.83
2022-11-29T12:53:34.326Z,42.53
2022-11-29T12:56:23.397Z,44.80
2022-11-29T12:59:01.905Z,34.38
2022-11-29T13:01:35.500Z,41.88
2022-11-29T13:04:13.050Z,30.40
2022-11-29T13:06:50.172Z,41.38
2022-11-29T13:09:41.471Z,42.58
2022-11-29T13:12:15.016Z,37.88
2022-11-29T13:14:51.977Z,38.75
2022-11-29T13:17:31.702Z,42.45
2022-11-29T13:20:20.733Z,32.67
2022-11-29T13:23:04.120Z,33.85
2022-11-29T13:25:35.101Z,40.63
2022-11-29T13:28:22.983Z,39.22
2022-11-29T13:30:51.276Z,38.92
2022-11-29T13:33:25.089Z,37.83
2022-11-29T13:35:55.458Z,43.22
2022-11-29T13:38:26.476Z,42.88
2022-11-29T13:41:06.601Z,35.83
2022-11-29T13:43:49.294Z,33.45
2022-11-29T13:46:21.897Z,35.65
2022-11-29T13:49:01.043Z,41.50
2022-11-29T13:51:36.380Z,40.85
2022-11-29T13:54:05.616Z,44.97
2022-11-29T13:56:36.339Z,46.70
2022-11-29T13:59:10.748Z,46.92
2022-11-29T14:01:54.200Z,43.75
2022-11-29T14:04:38.676Z,41.88
2022-11-29T14:07:10.887Z,41.72
2022-11-29T14:09:52.205Z,38.78
2022-11-29T14:12:22.055Z,43.33
2022-11-29T14:14:54.552Z,37.30
2022-11-29T14:17:34.149Z,48.83
2022-11-29T14:20:22.951Z,39.10
2022-11-29T14:23:05.477Z,44.17
2022-11-29T14:25:52.940Z,42.08
2022-11-29T14:28:23.347Z,48.10
2022-11-29T14:31:02.020Z,36.67
2022-11-29T14:33:38.462Z,40.47
2022-11-29T14:36:21.282Z,39.88
2022-11-29T14:39:19.592Z,39.80
2022-11-29T14:41:52.456Z,39.78
2022-11-29T14:44:26.361Z,43.75
2022-11-29T14:47:16.842Z,33.47
2022-11-29T14:49:47.390Z,32.67
2022-11-29T14:52:15.067Z,46.22
2022-11-29T14:54:54.776Z,31.38
2022-11-29T14:57:41.629Z,42.92
2022-11-29T15:00:12.238Z,38.63
2022-11-29T15:02:42.917Z,46.97
2022-11-29T15:05:30.408Z,39.22
2022-11-29T15:08:12.928Z,36.88
2022-11-29T15:10:42.068Z,39.75
2022-11-29T15:13:13.863Z,49.35
2022-11-29T15:15:41.304Z,34.67
2022-11-29T15:18:27.344Z,40.40
2022-11-29T15:20:57.508Z,41.22
2022-11-29T15:23:25.087Z,43.35
2022-11-29T15:25:53.463Z,39.60
2022-11-29T15:28:22.436Z,41.58
2022-11-29T15:30:52.108Z,34.38
2022-11-29T15:33:29.511Z,43.90
2022-11-29T15:36:04.159Z,42.40
2022-11-29T15:38:41.904Z,42.75
2022-11-29T15:41:23.448Z,47.67
2022-11-29T15:43:53.378Z,35.95
2022-11-29T15:46:30.395Z,50.45
2022-11-29T15:49:16.482Z,45.95
2022-11-29T15:51:47.024Z,46.85
2022-11-29T15:54:47.563Z,31.58
2022-11-29T15:57:27.302Z,37.53
2022-11-29T15:59:54.535Z,50.90
2022-11-29T16:02:29.397Z,43.50
2022-11-29T16:05:17.972Z,52.40
2022-11-29T16:07:46.233Z,49.92
2022-11-29T16:10:23.750Z,47.95
2022-11-29T16:13:30.284Z,60.40
2022-11-29T16:16:16.488Z,51.50
2022-11-29T16:18:47.128Z,36.10
2022-11-29T16:21:23.823Z,51.60
2022-11-29T16:23:56.540Z,53.80
2022-11-29T16:26:29.255Z,72.03
2022-11-29T16:29:03.241Z,56.17
2022-11-29T16:31:39.389Z,60.63
2022-11-29T16:34:24.968Z,68.88
2022-11-29T16:37:07.579Z,98.90
2022-11-29T16:39:36.861Z,175.75
2022-11-29T16:42:10.463Z,159.65
2022-11-29T16:44:45.754Z,116.60
2022-11-29T16:47:14.019Z,152.73
2022-11-29T16:49:41.824Z,124.45
2022-11-29T16:52:38.851Z,98.50
2022-11-29T16:55:06.459Z,83.40
2022-11-29T16:57:34.221Z,64.78
2022-11-29T17:00:04.866Z,93.30
2022-11-29T17:03:17.928Z,86.45
2022-11-29T17:05:56.054Z,67.20
2022-11-29T17:08:25.164Z,57.25
2022-11-29T17:10:52.562Z,45.70
2022-11-29T17:13:20.149Z,70.93
2022-11-29T17:15:47.938Z,46.05
2022-11-29T17:18:18.406Z,50.10
2022-11-29T17:20:46.297Z,41.83
2022-11-29T17:23:16.423Z,37.13
2022-11-29T17:25:43.921Z,46.72
2022-11-29T17:28:17.061Z,40.50
2022-11-29T17:30:44.549Z,50.78
2022-11-29T17:33:16.726Z,46.80
2022-11-29T17:35:44.579Z,54.78
2022-11-29T17:38:22.948Z,41.72
2022-11-29T17:40:55.056Z,50.88
2022-11-29T17:43:22.413Z,55.55
2022-11-29T17:45:51.871Z,74.10
2022-11-29T17:48:19.929Z,71.53
2022-11-29T17:50:49.618Z,63.17
2022-11-29T17:53:19.418Z,80.93
2022-11-29T17:55:47.090Z,64.78
2022-11-29T17:58:19.858Z,88.35
2022-11-29T18:00:47.324Z,102.53
2022-11-29T18:03:14.679Z,72.38
2022-11-29T18:05:42.287Z,92.53
2022-11-29T18:08:12.447Z,59.90
2022-11-29T18:10:40.886Z,58.47
2022-11-29T18:13:14.143Z,44.42
2022-11-29T18:15:41.931Z,48.25
2022-11-29T18:18:11.982Z,43.10
2022-11-29T18:20:45.453Z,51.97
2022-11-29T18:23:12.718Z,50.35
2022-11-29T18:25:43.694Z,39.70
2022-11-29T18:28:13.913Z,40.17
2022-11-29T18:30:42.299Z,42.65
2022-11-29T18:33:16.931Z,40.72
2022-11-29T18:35:47.423Z,47.72
2022-11-29T18:38:18.511Z,30.45
2022-11-29T18:40:46.723Z,35.63
2022-11-29T18:43:17.444Z,31.33
2022-11-29T18:45:46.989Z,36.28
2022-11-29T18:48:15.494Z,35.45
2022-11-29T18:50:45.520Z,22.00
2022-11-29T18:53:16.900Z,25.73
2022-11-29T18:55:47.311Z,28.25
2022-11-29T18:58:14.837Z,36.30
2022-11-29T19:00:42.417Z,34.80
2022-11-29T19:03:10.777Z,28.50
2022-11-29T19:05:38.656Z,22.52
2022-11-29T19:08:10.188Z,24.70
2022-11-29T19:10:44.300Z,22.10
2022-11-29T19:13:11.676Z,24.40
2022-11-29T19:15:40.367Z,23.48
2022-11-29T19:18:10.204Z,23.92
2022-11-29T19:20:39.883Z,21.90
2022-11-29T19:23:07.157Z,21.95
2022-11-29T19:25:35.320Z,21.65
2022-11-29T19:28:12.477Z,19.75
2022-11-29T19:30:41.243Z,23.77
2022-11-29T19:33:16.792Z,24.25
2022-11-29T19:35:47.447Z,21.40
2022-11-29T19:38:17.108Z,21.80
2022-11-29T19:40:47.072Z,28.42
2022-11-29T19:43:17.822Z,23.20
2022-11-29T19:45:48.086Z,21.88
2022-11-29T19:48:18.348Z,27.30
2022-11-29T19:50:49.447Z,19.92
2022-11-29T19:53:17.183Z,18.27
2022-11-29T19:55:47.222Z,20.20
2022-11-29T19:58:16.681Z,27.35
2022-11-29T20:00:46.502Z,20.45
2022-11-29T20:03:16.676Z,16.58
2022-11-29T20:05:47.207Z,25.02
2022-11-29T20:08:19.828Z,17.83
2022-11-29T20:10:48.493Z,25.15
2022-11-29T20:13:15.860Z,26.60
2022-11-29T20:15:43.156Z,21.45
2022-11-29T20:18:19.948Z,26.65
2022-11-29T20:20:47.184Z,18.48
2022-11-29T20:23:16.793Z,20.63
2022-11-29T20:25:49.119Z,20.60
2022-11-29T20:28:17.137Z,26.98
2022-11-29T20:30:47.106Z,23.00
2022-11-29T20:33:20.759Z,20.08
2022-11-29T20:35:48.284Z,22.88
2022-11-29T20:38:35.918Z,22.17
2022-11-29T20:41:12.600Z,17.15
2022-11-29T20:43:45.452Z,21.15
2022-11-29T20:46:13.647Z,22.42
2022-11-29T20:49:06.132Z,21.35
2022-11-29T20:51:40.737Z,23.52
2022-11-29T20:54:10.195Z,39.97
2022-11-29T20:56:37.893Z,23.00
2022-11-29T20:59:11.300Z,24.67
2022-11-29T21:01:41.137Z,19.00
2022-11-29T21:04:11.590Z,21.20
2022-11-29T21:06:39.109Z,29.60
2022-11-29T21:09:09.408Z,32.33
2022-11-29T21:11:37.656Z,22.08
2022-11-29T21:14:06.136Z,23.38
2022-11-29T21:16:33.575Z,19.48
2022-11-29T21:19:02.255Z,26.20
2022-11-29T21:21:33.155Z,21.23
2022-11-29T21:24:32.969Z,27.27
2022-11-29T21:27:01.123Z,17.23
2022-11-29T21:29:28.445Z,20.58
2022-11-29T21:31:56.543Z,18.63
2022-11-29T21:34:23.968Z,20.33
2022-11-29T21:36:57.121Z,20.75
2022-11-29T21:39:27.530Z,17.42
2022-11-29T21:41:55.098Z,25.55
2022-11-29T21:44:22.601Z,22.70
2022-11-29T21:46:50.111Z,19.45
2022-11-29T21:49:17.866Z,25.90
2022-11-29T21:51:44.913Z,16.65
2022-11-29T21:54:12.072Z,27.90
2022-11-29T21:56:40.118Z,19.10
2022-11-29T21:59:08.625Z,19.10
2022-11-29T22:01:36.050Z,26.23
2022-11-29T22:04:04.407Z,19.85
2022-11-29T22:06:32.010Z,16.67
2022-11-29T22:09:00.285Z,17.73
2022-11-29T22:11:31.255Z,15.93
2022-11-29T22:14:17.849Z,21.50
2022-11-29T22:16:58.703Z,23.42
2022-11-29T22:19:30.147Z,23.58
2022-11-29T22:21:59.026Z,16.20
2022-11-29T22:24:29.170Z,20.70
2022-11-29T22:26:57.440Z,21.13
2022-11-29T22:29:26.844Z,21.20
2022-11-29T22:31:55.605Z,22.50
2022-11-29T22:34:25.397Z,17.67
2022-11-29T22:36:52.470Z,23.20
2022-11-29T22:39:20.065Z,20.90
2022-11-29T22:41:53.649Z,19.65
2022-11-29T22:44:22.110Z,24.20
2022-11-29T22:46:49.555Z,17.85
2022-11-29T22:49:16.947Z,15.18
2022-11-29T22:51:44.179Z,22.67
2022-11-29T22:54:13.412Z,20.55
2022-11-29T22:56:41.406Z,21.73
2022-11-29T22:59:09.306Z,19.85
2022-11-29T23:01:40.937Z,24.25
2022-11-29T23:04:08.781Z,20.85
2022-11-29T23:06:46.376Z,25.15
2022-11-29T23:09:16.745Z,23.77
2022-11-29T23:11:45.081Z,24.05
2022-11-29T23:14:13.047Z,32.03
2022-11-29T23:16:40.326Z,23.55
2022-11-29T23:19:10.411Z,27.23
2022-11-29T23:21:42.188Z,28.60
2022-11-29T23:24:15.228Z,25.48
2022-11-29T23:26:44.095Z,24.13
2022-11-29T23:29:12.941Z,25.83
2022-11-29T23:31:40.964Z,26.10
2022-11-29T23:34:10.910Z,24.80
2022-11-29T23:36:38.053Z,27.17
2022-11-29T23:39:11.453Z,24.73
2022-11-29T23:41:42.311Z,32.38
2022-11-29T23:44:12.790Z,26.65
2022-11-29T23:46:39.907Z,32.70
2022-11-29T23:49:09.681Z,25.98
2022-11-29T23:51:37.210Z,30.45
2022-11-29T23:54:04.434Z,26.35
2022-11-29T23:56:35.379Z,27.02
2022-11-29T23:59:03.024Z,26.05
